sensor_id;sensor_type;location;lat;lon;timestamp;P1;P2;P0
57884;PMS5003;43703;51.060;-0.086;2022-08-01T00:01:29;9;7;
57884;PMS5003;43703;51.060;-0.086;2022-08-01T00:03:54;7;7;
57884;PMS5003;43703;51.060;-0.086;2022-08-01T00:06:19;12;9;
57884;PMS5003;43703;51.060;-0.086;2022-08-01T00:08:44;8;7;
57884;PMS5003;43703;51.060;-0.086;2022-08-01T00:11:09;9;9;
57884;PMS5003;43703;51.060;-0.086;2022-08-01T00:13:34;10;10;
57884;PMS5003;43703;51.060;-0.086;2022-08-01T00:15:59;11;11;
57884;PMS5003;43703;51.060;-0.086;2022-08-01T00:18:25;9;9;
57884;PMS5003;43703;51.060;-0.086;2022-08-01T00:20:51;9;9;
57884;PMS5003;43703;51.060;-0.086;2022-08-01T00:23:16;7;6;
57884;PMS5003;43703;51.060;-0.086;2022-08-01T00:25:41;9;9;
57884;PMS5003;43703;51.060;-0.086;2022-08-01T00:28:07;12;12;
57884;PMS5003;43703;51.060;-0.086;2022-08-01T00:30:33;7;7;
57884;PMS5003;43703;51.060;-0.086;2022-08-01T00:32:59;8;8;
57884;PMS5003;43703;51.060;-0.086;2022-08-01T00:35:24;10;8;
57884;PMS5003;43703;51.060;-0.086;2022-08-01T00:37:49;9;9;
57884;PMS5003;43703;51.060;-0.086;2022-08-01T00:40:14;10;10;
57884;PMS5003;43703;51.060;-0.086;2022-08-01T00:42:40;10;10;
57884;PMS5003;43703;51.060;-0.086;2022-08-01T00:45:05;8;8;
57884;PMS5003;43703;51.060;-0.086;2022-08-01T00:47:29;9;9;
57884;PMS5003;43703;51.060;-0.086;2022-08-01T00:49:55;10;10;
57884;PMS5003;43703;51.060;-0.086;2022-08-01T00:52:20;10;10;
57884;PMS5003;43703;51.060;-0.086;2022-08-01T00:54:45;10;10;
57884;PMS5003;43703;51.060;-0.086;2022-08-01T00:57:10;12;12;
57884;PMS5003;43703;51.060;-0.086;2022-08-01T00:59:35;9;9;
57884;PMS5003;43703;51.060;-0.086;2022-08-01T01:02:01;9;9;
57884;PMS5003;43703;51.060;-0.086;2022-08-01T01:04:27;9;9;
57884;PMS5003;43703;51.060;-0.086;2022-08-01T01:06:54;10;10;
57884;PMS5003;43703;51.060;-0.086;2022-08-01T01:09:23;12;12;
57884;PMS5003;43703;51.060;-0.086;2022-08-01T01:11:44;10;8;
57884;PMS5003;43703;51.060;-0.086;2022-08-01T01:14:08;9;9;
57884;PMS5003;43703;51.060;-0.086;2022-08-01T01:16:32;10;9;
57884;PMS5003;43703;51.060;-0.086;2022-08-01T01:18:57;8;8;
57884;PMS5003;43703;51.060;-0.086;2022-08-01T01:21:29;8;8;
57884;PMS5003;43703;51.060;-0.086;2022-08-01T01:23:50;8;8;
57884;PMS5003;43703;51.060;-0.086;2022-08-01T01:26:20;9;9;
57884;PMS5003;43703;51.060;-0.086;2022-08-01T01:31:02;9;9;
57884;PMS5003;43703;51.060;-0.086;2022-08-01T01:33:28;9;9;
57884;PMS5003;43703;51.060;-0.086;2022-08-01T01:35:54;10;8;
57884;PMS5003;43703;51.060;-0.086;2022-08-01T01:38:19;13;11;
57884;PMS5003;43703;51.060;-0.086;2022-08-01T01:40:43;12;11;
57884;PMS5003;43703;51.060;-0.086;2022-08-01T01:43:09;12;12;
57884;PMS5003;43703;51.060;-0.086;2022-08-01T01:45:34;12;11;
57884;PMS5003;43703;51.060;-0.086;2022-08-01T01:47:58;8;8;
57884;PMS5003;43703;51.060;-0.086;2022-08-01T01:50:24;10;10;
57884;PMS5003;43703;51.060;-0.086;2022-08-01T01:52:48;9;9;
57884;PMS5003;43703;51.060;-0.086;2022-08-01T01:55:13;9;9;
57884;PMS5003;43703;51.060;-0.086;2022-08-01T01:57:40;7;7;
57884;PMS5003;43703;51.060;-0.086;2022-08-01T02:00:04;11;10;
57884;PMS5003;43703;51.060;-0.086;2022-08-01T02:02:30;13;12;
57884;PMS5003;43703;51.060;-0.086;2022-08-01T02:04:55;10;10;
57884;PMS5003;43703;51.060;-0.086;2022-08-01T02:07:22;7;7;
57884;PMS5003;43703;51.060;-0.086;2022-08-01T02:09:46;9;9;
57884;PMS5003;43703;51.060;-0.086;2022-08-01T02:12:12;9;9;
57884;PMS5003;43703;51.060;-0.086;2022-08-01T02:14:37;8;7;
57884;PMS5003;43703;51.060;-0.086;2022-08-01T02:17:02;9;9;
57884;PMS5003;43703;51.060;-0.086;2022-08-01T02:19:27;10;10;
57884;PMS5003;43703;51.060;-0.086;2022-08-01T02:21:54;8;8;
57884;PMS5003;43703;51.060;-0.086;2022-08-01T02:24:19;9;9;
57884;PMS5003;43703;51.060;-0.086;2022-08-01T02:26:44;9;9;
57884;PMS5003;43703;51.060;-0.086;2022-08-01T02:29:07;9;9;
57884;PMS5003;43703;51.060;-0.086;2022-08-01T02:31:32;9;7;
57884;PMS5003;43703;51.060;-0.086;2022-08-01T02:33:58;10;10;
57884;PMS5003;43703;51.060;-0.086;2022-08-01T02:36:23;9;8;
57884;PMS5003;43703;51.060;-0.086;2022-08-01T02:38:47;9;8;
57884;PMS5003;43703;51.060;-0.086;2022-08-01T02:41:13;8;8;
57884;PMS5003;43703;51.060;-0.086;2022-08-01T02:43:37;5;5;
57884;PMS5003;43703;51.060;-0.086;2022-08-01T02:46:02;8;8;
57884;PMS5003;43703;51.060;-0.086;2022-08-01T02:48:27;7;7;
57884;PMS5003;43703;51.060;-0.086;2022-08-01T02:50:54;6;6;
57884;PMS5003;43703;51.060;-0.086;2022-08-01T02:53:18;7;7;
57884;PMS5003;43703;51.060;-0.086;2022-08-01T02:55:42;9;9;
57884;PMS5003;43703;51.060;-0.086;2022-08-01T02:58:09;8;8;
57884;PMS5003;43703;51.060;-0.086;2022-08-01T03:00:34;6;6;
57884;PMS5003;43703;51.060;-0.086;2022-08-01T03:03:00;9;8;
57884;PMS5003;43703;51.060;-0.086;2022-08-01T03:05:25;6;6;
57884;PMS5003;43703;51.060;-0.086;2022-08-01T03:07:51;6;6;
57884;PMS5003;43703;51.060;-0.086;2022-08-01T03:10:17;7;7;
57884;PMS5003;43703;51.060;-0.086;2022-08-01T03:12:42;7;6;
57884;PMS5003;43703;51.060;-0.086;2022-08-01T03:15:08;6;6;
57884;PMS5003;43703;51.060;-0.086;2022-08-01T03:17:32;5;5;
57884;PMS5003;43703;51.060;-0.086;2022-08-01T03:19:58;8;7;
57884;PMS5003;43703;51.060;-0.086;2022-08-01T03:22:24;5;5;
57884;PMS5003;43703;51.060;-0.086;2022-08-01T03:24:51;4;4;
57884;PMS5003;43703;51.060;-0.086;2022-08-01T03:27:16;6;6;
57884;PMS5003;43703;51.060;-0.086;2022-08-01T03:29:42;6;6;
57884;PMS5003;43703;51.060;-0.086;2022-08-01T03:32:08;5;5;
57884;PMS5003;43703;51.060;-0.086;2022-08-01T03:34:33;8;7;
57884;PMS5003;43703;51.060;-0.086;2022-08-01T03:37:00;6;6;
57884;PMS5003;43703;51.060;-0.086;2022-08-01T03:39:25;5;3;
57884;PMS5003;43703;51.060;-0.086;2022-08-01T03:41:51;12;10;
57884;PMS5003;43703;51.060;-0.086;2022-08-01T03:44:15;4;4;
57884;PMS5003;43703;51.060;-0.086;2022-08-01T03:46:42;7;7;
57884;PMS5003;43703;51.060;-0.086;2022-08-01T03:49:09;5;5;
57884;PMS5003;43703;51.060;-0.086;2022-08-01T03:51:32;5;3;
57884;PMS5003;43703;51.060;-0.086;2022-08-01T03:53:58;2;2;
57884;PMS5003;43703;51.060;-0.086;2022-08-01T03:56:23;6;5;
57884;PMS5003;43703;51.060;-0.086;2022-08-01T03:58:48;5;5;
57884;PMS5003;43703;51.060;-0.086;2022-08-01T04:01:13;5;5;
57884;PMS5003;43703;51.060;-0.086;2022-08-01T04:03:39;3;3;
57884;PMS5003;43703;51.060;-0.086;2022-08-01T04:06:04;3;3;
57884;PMS5003;43703;51.060;-0.086;2022-08-01T04:08:34;4;4;
57884;PMS5003;43703;51.060;-0.086;2022-08-01T04:10:56;3;3;
57884;PMS5003;43703;51.060;-0.086;2022-08-01T04:13:22;4;4;
57884;PMS5003;43703;51.060;-0.086;2022-08-01T04:15:47;5;5;
57884;PMS5003;43703;51.060;-0.086;2022-08-01T04:18:12;4;4;
57884;PMS5003;43703;51.060;-0.086;2022-08-01T04:20:37;4;4;
57884;PMS5003;43703;51.060;-0.086;2022-08-01T04:23:03;5;4;
57884;PMS5003;43703;51.060;-0.086;2022-08-01T04:25:31;3;3;
57884;PMS5003;43703;51.060;-0.086;2022-08-01T04:27:54;4;3;
57884;PMS5003;43703;51.060;-0.086;2022-08-01T04:30:21;4;4;
57884;PMS5003;43703;51.060;-0.086;2022-08-01T04:32:46;4;4;
57884;PMS5003;43703;51.060;-0.086;2022-08-01T04:35:12;4;4;
57884;PMS5003;43703;51.060;-0.086;2022-08-01T04:37:37;6;5;
57884;PMS5003;43703;51.060;-0.086;2022-08-01T04:40:04;4;4;
57884;PMS5003;43703;51.060;-0.086;2022-08-01T04:42:29;3;3;
57884;PMS5003;43703;51.060;-0.086;2022-08-01T04:44:55;3;3;
57884;PMS5003;43703;51.060;-0.086;2022-08-01T04:47:21;6;4;
57884;PMS5003;43703;51.060;-0.086;2022-08-01T04:49:46;4;4;
57884;PMS5003;43703;51.060;-0.086;2022-08-01T04:52:11;4;3;
57884;PMS5003;43703;51.060;-0.086;2022-08-01T04:54:37;4;4;
57884;PMS5003;43703;51.060;-0.086;2022-08-01T04:57:02;6;6;
57884;PMS5003;43703;51.060;-0.086;2022-08-01T04:59:27;4;4;
57884;PMS5003;43703;51.060;-0.086;2022-08-01T05:01:52;5;4;
57884;PMS5003;43703;51.060;-0.086;2022-08-01T05:04:18;3;3;
57884;PMS5003;43703;51.060;-0.086;2022-08-01T05:06:43;5;5;
57884;PMS5003;43703;51.060;-0.086;2022-08-01T05:09:09;6;5;
57884;PMS5003;43703;51.060;-0.086;2022-08-01T05:11:35;5;5;
57884;PMS5003;43703;51.060;-0.086;2022-08-01T05:14:01;6;5;
57884;PMS5003;43703;51.060;-0.086;2022-08-01T05:16:27;4;4;
57884;PMS5003;43703;51.060;-0.086;2022-08-01T05:18:52;5;3;
57884;PMS5003;43703;51.060;-0.086;2022-08-01T05:21:17;4;4;
57884;PMS5003;43703;51.060;-0.086;2022-08-01T05:23:43;4;4;
57884;PMS5003;43703;51.060;-0.086;2022-08-01T05:26:08;3;3;
57884;PMS5003;43703;51.060;-0.086;2022-08-01T05:28:33;4;4;
57884;PMS5003;43703;51.060;-0.086;2022-08-01T05:30:59;5;5;
57884;PMS5003;43703;51.060;-0.086;2022-08-01T05:33:24;4;4;
57884;PMS5003;43703;51.060;-0.086;2022-08-01T05:35:49;3;3;
57884;PMS5003;43703;51.060;-0.086;2022-08-01T05:38:15;4;4;
57884;PMS5003;43703;51.060;-0.086;2022-08-01T05:40:41;5;3;
57884;PMS5003;43703;51.060;-0.086;2022-08-01T05:43:07;3;3;
57884;PMS5003;43703;51.060;-0.086;2022-08-01T05:45:33;4;4;
57884;PMS5003;43703;51.060;-0.086;2022-08-01T05:47:59;4;4;
57884;PMS5003;43703;51.060;-0.086;2022-08-01T05:50:25;4;3;
57884;PMS5003;43703;51.060;-0.086;2022-08-01T05:52:50;3;3;
57884;PMS5003;43703;51.060;-0.086;2022-08-01T05:55:16;3;3;
57884;PMS5003;43703;51.060;-0.086;2022-08-01T05:57:42;4;4;
57884;PMS5003;43703;51.060;-0.086;2022-08-01T06:00:08;3;3;
57884;PMS5003;43703;51.060;-0.086;2022-08-01T06:02:34;3;3;
57884;PMS5003;43703;51.060;-0.086;2022-08-01T06:04:59;7;5;
57884;PMS5003;43703;51.060;-0.086;2022-08-01T06:07:24;4;4;
57884;PMS5003;43703;51.060;-0.086;2022-08-01T06:09:49;7;5;
57884;PMS5003;43703;51.060;-0.086;2022-08-01T06:12:14;4;4;
57884;PMS5003;43703;51.060;-0.086;2022-08-01T06:14:40;4;4;
57884;PMS5003;43703;51.060;-0.086;2022-08-01T06:17:06;6;6;
57884;PMS5003;43703;51.060;-0.086;2022-08-01T06:19:31;5;5;
57884;PMS5003;43703;51.060;-0.086;2022-08-01T06:21:57;5;5;
57884;PMS5003;43703;51.060;-0.086;2022-08-01T06:24:22;5;5;
57884;PMS5003;43703;51.060;-0.086;2022-08-01T06:26:48;5;5;
57884;PMS5003;43703;51.060;-0.086;2022-08-01T06:29:13;4;4;
57884;PMS5003;43703;51.060;-0.086;2022-08-01T06:31:39;4;4;
57884;PMS5003;43703;51.060;-0.086;2022-08-01T06:34:05;5;5;
57884;PMS5003;43703;51.060;-0.086;2022-08-01T06:36:31;4;4;
57884;PMS5003;43703;51.060;-0.086;2022-08-01T06:38:57;4;4;
57884;PMS5003;43703;51.060;-0.086;2022-08-01T06:41:23;5;5;
57884;PMS5003;43703;51.060;-0.086;2022-08-01T06:43:48;4;4;
57884;PMS5003;43703;51.060;-0.086;2022-08-01T06:46:13;5;5;
57884;PMS5003;43703;51.060;-0.086;2022-08-01T06:48:38;5;3;
57884;PMS5003;43703;51.060;-0.086;2022-08-01T06:51:03;4;4;
57884;PMS5003;43703;51.060;-0.086;2022-08-01T06:53:29;5;5;
57884;PMS5003;43703;51.060;-0.086;2022-08-01T06:55:55;4;4;
57884;PMS5003;43703;51.060;-0.086;2022-08-01T06:58:21;4;4;
57884;PMS5003;43703;51.060;-0.086;2022-08-01T07:00:47;4;4;
57884;PMS5003;43703;51.060;-0.086;2022-08-01T07:03:13;5;5;
57884;PMS5003;43703;51.060;-0.086;2022-08-01T07:05:39;4;4;
57884;PMS5003;43703;51.060;-0.086;2022-08-01T07:08:05;4;4;
57884;PMS5003;43703;51.060;-0.086;2022-08-01T07:10:30;4;4;
57884;PMS5003;43703;51.060;-0.086;2022-08-01T07:12:56;4;4;
57884;PMS5003;43703;51.060;-0.086;2022-08-01T07:15:22;5;4;
57884;PMS5003;43703;51.060;-0.086;2022-08-01T07:17:48;2;2;
57884;PMS5003;43703;51.060;-0.086;2022-08-01T07:20:14;4;2;
57884;PMS5003;43703;51.060;-0.086;2022-08-01T07:22:40;3;3;
57884;PMS5003;43703;51.060;-0.086;2022-08-01T07:25:06;3;3;
57884;PMS5003;43703;51.060;-0.086;2022-08-01T07:27:31;6;4;
57884;PMS5003;43703;51.060;-0.086;2022-08-01T07:29:57;3;3;
57884;PMS5003;43703;51.060;-0.086;2022-08-01T07:32:23;3;3;
57884;PMS5003;43703;51.060;-0.086;2022-08-01T07:34:49;3;3;
57884;PMS5003;43703;51.060;-0.086;2022-08-01T07:37:15;3;3;
57884;PMS5003;43703;51.060;-0.086;2022-08-01T07:39:40;4;4;
57884;PMS5003;43703;51.060;-0.086;2022-08-01T07:42:07;6;4;
57884;PMS5003;43703;51.060;-0.086;2022-08-01T07:44:32;1;1;
57884;PMS5003;43703;51.060;-0.086;2022-08-01T07:46:58;4;4;
57884;PMS5003;43703;51.060;-0.086;2022-08-01T07:49:24;2;2;
57884;PMS5003;43703;51.060;-0.086;2022-08-01T07:51:50;2;2;
57884;PMS5003;43703;51.060;-0.086;2022-08-01T07:54:15;3;3;
57884;PMS5003;43703;51.060;-0.086;2022-08-01T07:56:41;5;5;
57884;PMS5003;43703;51.060;-0.086;2022-08-01T07:59:07;3;3;
57884;PMS5003;43703;51.060;-0.086;2022-08-01T08:01:33;2;2;
57884;PMS5003;43703;51.060;-0.086;2022-08-01T08:03:59;3;3;
57884;PMS5003;43703;51.060;-0.086;2022-08-01T08:06:25;4;2;
57884;PMS5003;43703;51.060;-0.086;2022-08-01T08:08:51;2;2;
57884;PMS5003;43703;51.060;-0.086;2022-08-01T08:11:16;4;4;
57884;PMS5003;43703;51.060;-0.086;2022-08-01T08:13:42;3;3;
57884;PMS5003;43703;51.060;-0.086;2022-08-01T08:16:08;2;2;
57884;PMS5003;43703;51.060;-0.086;2022-08-01T08:18:34;2;2;
57884;PMS5003;43703;51.060;-0.086;2022-08-01T08:21:00;5;5;
57884;PMS5003;43703;51.060;-0.086;2022-08-01T08:23:26;2;2;
57884;PMS5003;43703;51.060;-0.086;2022-08-01T08:25:51;3;3;
57884;PMS5003;43703;51.060;-0.086;2022-08-01T08:28:17;3;3;
57884;PMS5003;43703;51.060;-0.086;2022-08-01T08:30:43;4;3;
57884;PMS5003;43703;51.060;-0.086;2022-08-01T08:33:09;3;3;
57884;PMS5003;43703;51.060;-0.086;2022-08-01T08:35:35;3;3;
57884;PMS5003;43703;51.060;-0.086;2022-08-01T08:38:01;3;3;
57884;PMS5003;43703;51.060;-0.086;2022-08-01T08:40:29;3;3;
57884;PMS5003;43703;51.060;-0.086;2022-08-01T08:42:52;3;3;
57884;PMS5003;43703;51.060;-0.086;2022-08-01T08:45:18;2;2;
57884;PMS5003;43703;51.060;-0.086;2022-08-01T08:47:45;4;4;
57884;PMS5003;43703;51.060;-0.086;2022-08-01T08:50:10;4;4;
57884;PMS5003;43703;51.060;-0.086;2022-08-01T08:52:37;3;3;
57884;PMS5003;43703;51.060;-0.086;2022-08-01T08:55:02;3;3;
57884;PMS5003;43703;51.060;-0.086;2022-08-01T08:57:28;3;3;
57884;PMS5003;43703;51.060;-0.086;2022-08-01T08:59:53;4;4;
57884;PMS5003;43703;51.060;-0.086;2022-08-01T09:02:19;4;3;
57884;PMS5003;43703;51.060;-0.086;2022-08-01T09:04:46;3;3;
57884;PMS5003;43703;51.060;-0.086;2022-08-01T09:07:11;4;4;
57884;PMS5003;43703;51.060;-0.086;2022-08-01T09:09:37;4;4;
57884;PMS5003;43703;51.060;-0.086;2022-08-01T09:12:03;5;5;
57884;PMS5003;43703;51.060;-0.086;2022-08-01T09:14:29;4;4;
57884;PMS5003;43703;51.060;-0.086;2022-08-01T09:19:20;6;5;
57884;PMS5003;43703;51.060;-0.086;2022-08-01T09:24:14;5;4;
57884;PMS5003;43703;51.060;-0.086;2022-08-01T09:26:38;2;2;
57884;PMS5003;43703;51.060;-0.086;2022-08-01T09:29:04;4;4;
57884;PMS5003;43703;51.060;-0.086;2022-08-01T09:31:38;4;4;
57884;PMS5003;43703;51.060;-0.086;2022-08-01T09:33:56;3;3;
57884;PMS5003;43703;51.060;-0.086;2022-08-01T09:36:23;4;4;
57884;PMS5003;43703;51.060;-0.086;2022-08-01T09:38:47;5;5;
57884;PMS5003;43703;51.060;-0.086;2022-08-01T09:41:13;5;5;
57884;PMS5003;43703;51.060;-0.086;2022-08-01T09:43:39;6;4;
57884;PMS5003;43703;51.060;-0.086;2022-08-01T09:46:05;6;6;
57884;PMS5003;43703;51.060;-0.086;2022-08-01T09:48:30;4;4;
57884;PMS5003;43703;51.060;-0.086;2022-08-01T09:50:57;5;5;
57884;PMS5003;43703;51.060;-0.086;2022-08-01T09:53:22;5;5;
57884;PMS5003;43703;51.060;-0.086;2022-08-01T09:55:48;4;4;
57884;PMS5003;43703;51.060;-0.086;2022-08-01T09:58:14;3;3;
57884;PMS5003;43703;51.060;-0.086;2022-08-01T10:00:40;6;6;
57884;PMS5003;43703;51.060;-0.086;2022-08-01T10:05:32;5;4;
57884;PMS5003;43703;51.060;-0.086;2022-08-01T10:07:58;3;3;
57884;PMS5003;43703;51.060;-0.086;2022-08-01T10:10:23;5;5;
57884;PMS5003;43703;51.060;-0.086;2022-08-01T10:12:49;4;4;
57884;PMS5003;43703;51.060;-0.086;2022-08-01T10:15:15;4;4;
57884;PMS5003;43703;51.060;-0.086;2022-08-01T10:17:41;7;7;
57884;PMS5003;43703;51.060;-0.086;2022-08-01T10:20:07;5;5;
57884;PMS5003;43703;51.060;-0.086;2022-08-01T10:22:33;4;4;
57884;PMS5003;43703;51.060;-0.086;2022-08-01T10:24:58;6;6;
57884;PMS5003;43703;51.060;-0.086;2022-08-01T10:27:24;4;4;
57884;PMS5003;43703;51.060;-0.086;2022-08-01T10:29:51;6;4;
57884;PMS5003;43703;51.060;-0.086;2022-08-01T10:32:16;4;4;
57884;PMS5003;43703;51.060;-0.086;2022-08-01T10:34:42;5;5;
57884;PMS5003;43703;51.060;-0.086;2022-08-01T10:37:07;7;6;
57884;PMS5003;43703;51.060;-0.086;2022-08-01T10:39:33;6;4;
57884;PMS5003;43703;51.060;-0.086;2022-08-01T10:41:59;7;7;
57884;PMS5003;43703;51.060;-0.086;2022-08-01T10:44:25;6;6;
57884;PMS5003;43703;51.060;-0.086;2022-08-01T10:46:59;7;5;
57884;PMS5003;43703;51.060;-0.086;2022-08-01T10:49:17;5;5;
57884;PMS5003;43703;51.060;-0.086;2022-08-01T10:51:41;7;7;
57884;PMS5003;43703;51.060;-0.086;2022-08-01T10:54:07;7;7;
57884;PMS5003;43703;51.060;-0.086;2022-08-01T10:59:01;6;6;
57884;PMS5003;43703;51.060;-0.086;2022-08-01T11:01:24;7;6;
57884;PMS5003;43703;51.060;-0.086;2022-08-01T11:06:16;6;6;
57884;PMS5003;43703;51.060;-0.086;2022-08-01T11:08:41;8;6;
57884;PMS5003;43703;51.060;-0.086;2022-08-01T11:11:07;6;6;
57884;PMS5003;43703;51.060;-0.086;2022-08-01T11:15:59;4;4;
57884;PMS5003;43703;51.060;-0.086;2022-08-01T11:20:54;5;5;
57884;PMS5003;43703;51.060;-0.086;2022-08-01T11:23:16;4;4;
57884;PMS5003;43703;51.060;-0.086;2022-08-01T11:30:34;5;5;
57884;PMS5003;43703;51.060;-0.086;2022-08-01T11:32:59;5;4;
57884;PMS5003;43703;51.060;-0.086;2022-08-01T11:35:25;5;5;
57884;PMS5003;43703;51.060;-0.086;2022-08-01T11:37:52;4;4;
57884;PMS5003;43703;51.060;-0.086;2022-08-01T11:40:18;6;6;
57884;PMS5003;43703;51.060;-0.086;2022-08-01T11:42:43;4;4;
57884;PMS5003;43703;51.060;-0.086;2022-08-01T11:45:09;5;5;
57884;PMS5003;43703;51.060;-0.086;2022-08-01T11:47:42;4;4;
57884;PMS5003;43703;51.060;-0.086;2022-08-01T11:50:01;6;6;
57884;PMS5003;43703;51.060;-0.086;2022-08-01T11:52:27;6;4;
57884;PMS5003;43703;51.060;-0.086;2022-08-01T11:54:53;4;4;
57884;PMS5003;43703;51.060;-0.086;2022-08-01T11:57:19;6;6;
57884;PMS5003;43703;51.060;-0.086;2022-08-01T11:59:44;7;7;
57884;PMS5003;43703;51.060;-0.086;2022-08-01T12:09:27;6;6;
57884;PMS5003;43703;51.060;-0.086;2022-08-01T12:11:53;7;6;
57884;PMS5003;43703;51.060;-0.086;2022-08-01T12:14:19;7;6;
57884;PMS5003;43703;51.060;-0.086;2022-08-01T12:16:49;5;5;
57884;PMS5003;43703;51.060;-0.086;2022-08-01T12:19:11;6;6;
57884;PMS5003;43703;51.060;-0.086;2022-08-01T12:21:37;4;4;
57884;PMS5003;43703;51.060;-0.086;2022-08-01T12:24:02;7;7;
57884;PMS5003;43703;51.060;-0.086;2022-08-01T12:28:54;4;4;
57884;PMS5003;43703;51.060;-0.086;2022-08-01T12:33:46;8;7;
57884;PMS5003;43703;51.060;-0.086;2022-08-01T12:36:12;6;6;
57884;PMS5003;43703;51.060;-0.086;2022-08-01T12:38:37;7;7;
57884;PMS5003;43703;51.060;-0.086;2022-08-01T12:41:03;8;8;
57884;PMS5003;43703;51.060;-0.086;2022-08-01T12:43:29;5;5;
57884;PMS5003;43703;51.060;-0.086;2022-08-01T12:45:55;10;8;
57884;PMS5003;43703;51.060;-0.086;2022-08-01T12:48:21;6;6;
57884;PMS5003;43703;51.060;-0.086;2022-08-01T12:50:47;9;9;
57884;PMS5003;43703;51.060;-0.086;2022-08-01T12:53:13;7;7;
57884;PMS5003;43703;51.060;-0.086;2022-08-01T12:55:43;8;8;
57884;PMS5003;43703;51.060;-0.086;2022-08-01T12:58:05;7;7;
57884;PMS5003;43703;51.060;-0.086;2022-08-01T13:00:30;6;6;
57884;PMS5003;43703;51.060;-0.086;2022-08-01T13:03:00;7;6;
57884;PMS5003;43703;51.060;-0.086;2022-08-01T13:05:24;5;5;
57884;PMS5003;43703;51.060;-0.086;2022-08-01T13:07:49;7;7;
57884;PMS5003;43703;51.060;-0.086;2022-08-01T13:10:14;8;8;
57884;PMS5003;43703;51.060;-0.086;2022-08-01T13:12:40;6;6;
57884;PMS5003;43703;51.060;-0.086;2022-08-01T13:17:32;7;7;
57884;PMS5003;43703;51.060;-0.086;2022-08-01T13:19:57;7;7;
57884;PMS5003;43703;51.060;-0.086;2022-08-01T13:24:48;5;5;
57884;PMS5003;43703;51.060;-0.086;2022-08-01T13:27:20;6;6;
57884;PMS5003;43703;51.060;-0.086;2022-08-01T13:29:40;8;8;
57884;PMS5003;43703;51.060;-0.086;2022-08-01T13:34:32;5;5;
57884;PMS5003;43703;51.060;-0.086;2022-08-01T13:36:57;8;8;
57884;PMS5003;43703;51.060;-0.086;2022-08-01T13:39:23;7;7;
57884;PMS5003;43703;51.060;-0.086;2022-08-01T13:41:49;6;5;
57884;PMS5003;43703;51.060;-0.086;2022-08-01T13:44:15;7;6;
57884;PMS5003;43703;51.060;-0.086;2022-08-01T13:46:41;5;5;
57884;PMS5003;43703;51.060;-0.086;2022-08-01T13:49:07;7;7;
57884;PMS5003;43703;51.060;-0.086;2022-08-01T13:51:32;5;5;
57884;PMS5003;43703;51.060;-0.086;2022-08-01T13:53:58;7;7;
57884;PMS5003;43703;51.060;-0.086;2022-08-01T13:56:24;6;4;
57884;PMS5003;43703;51.060;-0.086;2022-08-01T13:58:50;7;6;
57884;PMS5003;43703;51.060;-0.086;2022-08-01T14:01:16;7;7;
57884;PMS5003;43703;51.060;-0.086;2022-08-01T14:03:41;5;5;
57884;PMS5003;43703;51.060;-0.086;2022-08-01T14:06:07;5;5;
57884;PMS5003;43703;51.060;-0.086;2022-08-01T14:08:33;7;7;
57884;PMS5003;43703;51.060;-0.086;2022-08-01T14:10:59;6;6;
57884;PMS5003;43703;51.060;-0.086;2022-08-01T14:13:25;10;10;
57884;PMS5003;43703;51.060;-0.086;2022-08-01T14:15:51;8;8;
57884;PMS5003;43703;51.060;-0.086;2022-08-01T14:18:16;11;9;
57884;PMS5003;43703;51.060;-0.086;2022-08-01T14:20:42;10;7;
57884;PMS5003;43703;51.060;-0.086;2022-08-01T14:23:08;9;9;
57884;PMS5003;43703;51.060;-0.086;2022-08-01T14:25:34;11;10;
57884;PMS5003;43703;51.060;-0.086;2022-08-01T14:28:00;7;7;
57884;PMS5003;43703;51.060;-0.086;2022-08-01T14:30:26;7;7;
57884;PMS5003;43703;51.060;-0.086;2022-08-01T14:32:52;11;10;
57884;PMS5003;43703;51.060;-0.086;2022-08-01T14:35:18;10;10;
57884;PMS5003;43703;51.060;-0.086;2022-08-01T14:37:43;8;8;
57884;PMS5003;43703;51.060;-0.086;2022-08-01T14:40:09;9;9;
57884;PMS5003;43703;51.060;-0.086;2022-08-01T14:42:35;8;7;
57884;PMS5003;43703;51.060;-0.086;2022-08-01T14:45:01;10;9;
57884;PMS5003;43703;51.060;-0.086;2022-08-01T14:47:27;7;7;
57884;PMS5003;43703;51.060;-0.086;2022-08-01T14:49:52;6;6;
57884;PMS5003;43703;51.060;-0.086;2022-08-01T14:52:18;11;10;
57884;PMS5003;43703;51.060;-0.086;2022-08-01T14:54:44;10;8;
57884;PMS5003;43703;51.060;-0.086;2022-08-01T14:57:10;9;9;
57884;PMS5003;43703;51.060;-0.086;2022-08-01T14:59:36;10;10;
57884;PMS5003;43703;51.060;-0.086;2022-08-01T15:02:02;12;11;
57884;PMS5003;43703;51.060;-0.086;2022-08-01T15:04:27;11;10;
57884;PMS5003;43703;51.060;-0.086;2022-08-01T15:06:53;12;12;
57884;PMS5003;43703;51.060;-0.086;2022-08-01T15:09:19;9;9;
57884;PMS5003;43703;51.060;-0.086;2022-08-01T15:11:45;7;7;
57884;PMS5003;43703;51.060;-0.086;2022-08-01T15:14:11;9;9;
57884;PMS5003;43703;51.060;-0.086;2022-08-01T15:16:37;9;8;
57884;PMS5003;43703;51.060;-0.086;2022-08-01T15:19:02;10;10;
57884;PMS5003;43703;51.060;-0.086;2022-08-01T15:21:28;7;7;
57884;PMS5003;43703;51.060;-0.086;2022-08-01T15:23:54;7;7;
57884;PMS5003;43703;51.060;-0.086;2022-08-01T15:26:19;11;9;
57884;PMS5003;43703;51.060;-0.086;2022-08-01T15:28:45;10;9;
57884;PMS5003;43703;51.060;-0.086;2022-08-01T15:31:11;12;12;
57884;PMS5003;43703;51.060;-0.086;2022-08-01T15:33:37;9;9;
57884;PMS5003;43703;51.060;-0.086;2022-08-01T15:36:03;10;10;
57884;PMS5003;43703;51.060;-0.086;2022-08-01T15:38:28;9;9;
57884;PMS5003;43703;51.060;-0.086;2022-08-01T15:40:54;8;8;
57884;PMS5003;43703;51.060;-0.086;2022-08-01T15:43:20;9;9;
57884;PMS5003;43703;51.060;-0.086;2022-08-01T15:45:46;6;6;
57884;PMS5003;43703;51.060;-0.086;2022-08-01T15:48:12;8;8;
57884;PMS5003;43703;51.060;-0.086;2022-08-01T15:50:38;7;7;
57884;PMS5003;43703;51.060;-0.086;2022-08-01T15:53:04;7;7;
57884;PMS5003;43703;51.060;-0.086;2022-08-01T15:55:29;8;7;
57884;PMS5003;43703;51.060;-0.086;2022-08-01T15:57:55;7;7;
57884;PMS5003;43703;51.060;-0.086;2022-08-01T16:00:21;9;8;
57884;PMS5003;43703;51.060;-0.086;2022-08-01T16:02:47;8;8;
57884;PMS5003;43703;51.060;-0.086;2022-08-01T16:05:13;7;7;
57884;PMS5003;43703;51.060;-0.086;2022-08-01T16:07:38;8;7;
57884;PMS5003;43703;51.060;-0.086;2022-08-01T16:10:04;5;5;
57884;PMS5003;43703;51.060;-0.086;2022-08-01T16:12:30;7;6;
57884;PMS5003;43703;51.060;-0.086;2022-08-01T16:14:56;8;6;
57884;PMS5003;43703;51.060;-0.086;2022-08-01T16:17:22;5;5;
57884;PMS5003;43703;51.060;-0.086;2022-08-01T16:19:48;6;6;
57884;PMS5003;43703;51.060;-0.086;2022-08-01T16:22:13;6;6;
57884;PMS5003;43703;51.060;-0.086;2022-08-01T16:24:39;4;4;
57884;PMS5003;43703;51.060;-0.086;2022-08-01T16:27:05;5;5;
57884;PMS5003;43703;51.060;-0.086;2022-08-01T16:29:31;7;7;
57884;PMS5003;43703;51.060;-0.086;2022-08-01T16:31:57;8;8;
57884;PMS5003;43703;51.060;-0.086;2022-08-01T16:34:23;5;4;
57884;PMS5003;43703;51.060;-0.086;2022-08-01T16:36:48;8;7;
57884;PMS5003;43703;51.060;-0.086;2022-08-01T16:39:14;6;5;
57884;PMS5003;43703;51.060;-0.086;2022-08-01T16:41:40;6;6;
57884;PMS5003;43703;51.060;-0.086;2022-08-01T16:44:06;6;6;
57884;PMS5003;43703;51.060;-0.086;2022-08-01T16:46:32;7;7;
57884;PMS5003;43703;51.060;-0.086;2022-08-01T16:48:58;9;9;
57884;PMS5003;43703;51.060;-0.086;2022-08-01T16:51:24;6;6;
57884;PMS5003;43703;51.060;-0.086;2022-08-01T16:53:49;7;7;
57884;PMS5003;43703;51.060;-0.086;2022-08-01T16:56:15;7;6;
57884;PMS5003;43703;51.060;-0.086;2022-08-01T16:58:41;9;8;
57884;PMS5003;43703;51.060;-0.086;2022-08-01T17:01:07;8;8;
57884;PMS5003;43703;51.060;-0.086;2022-08-01T17:03:32;12;10;